sensor_id;sensor_type;location;lat;lon;timestamp;pressure;altitude;pressure_sealevel;temperature;humidity
60214;BME280;46080;46.904;19.688;2022-07-18T00:00:05;100949.16;;;19.83;31.92
60214;BME280;46080;46.904;19.688;2022-07-18T00:02:32;100957.28;;;19.83;31.65
60214;BME280;46080;46.904;19.688;2022-07-18T00:04:58;100954.34;;;19.71;31.79
60214;BME280;46080;46.904;19.688;2022-07-18T00:07:23;100950.63;;;19.66;32.02
60214;BME280;46080;46.904;19.688;2022-07-18T00:09:49;100957.06;;;19.78;32.11
60214;BME280;46080;46.904;19.688;2022-07-18T00:12:15;100956.41;;;19.83;32.05
60214;BME280;46080;46.904;19.688;2022-07-18T00:14:41;100966.59;;;19.87;31.87
60214;BME280;46080;46.904;19.688;2022-07-18T00:17:07;100973.28;;;19.92;31.65
60214;BME280;46080;46.904;19.688;2022-07-18T00:19:33;100962.84;;;19.95;32.00
60214;BME280;46080;46.904;19.688;2022-07-18T00:21:59;100961.41;;;19.93;32.06
60214;BME280;46080;46.904;19.688;2022-07-18T00:24:27;100960.59;;;19.85;31.82
60214;BME280;46080;46.904;19.688;2022-07-18T00:26:52;100959.75;;;19.71;31.70
60214;BME280;46080;46.904;19.688;2022-07-18T00:29:18;100963.72;;;19.56;32.14
60214;BME280;46080;46.904;19.688;2022-07-18T00:31:44;100958.09;;;19.57;31.75
60214;BME280;46080;46.904;19.688;2022-07-18T00:34:09;100959.56;;;19.60;31.81
60214;BME280;46080;46.904;19.688;2022-07-18T00:36:35;100957.91;;;19.59;32.06
60214;BME280;46080;46.904;19.688;2022-07-18T00:39:01;100956.44;;;19.56;31.90
60214;BME280;46080;46.904;19.688;2022-07-18T00:41:28;100953.72;;;19.56;31.97
60214;BME280;46080;46.904;19.688;2022-07-18T00:43:54;100965.59;;;19.62;32.44
60214;BME280;46080;46.904;19.688;2022-07-18T00:46:23;100962.91;;;19.55;32.15
60214;BME280;46080;46.904;19.688;2022-07-18T00:48:49;100969.75;;;19.58;32.26
60214;BME280;46080;46.904;19.688;2022-07-18T00:51:16;100961.25;;;19.47;32.48
60214;BME280;46080;46.904;19.688;2022-07-18T00:53:43;100963.09;;;19.40;32.31
60214;BME280;46080;46.904;19.688;2022-07-18T00:56:09;100961.66;;;19.24;32.59
60214;BME280;46080;46.904;19.688;2022-07-18T00:58:36;100955.78;;;18.94;33.28
60214;BME280;46080;46.904;19.688;2022-07-18T01:01:02;100955.69;;;18.67;33.66
60214;BME280;46080;46.904;19.688;2022-07-18T01:03:46;100950.22;;;18.54;33.90
60214;BME280;46080;46.904;19.688;2022-07-18T01:06:12;100947.31;;;18.42;33.66
60214;BME280;46080;46.904;19.688;2022-07-18T01:08:38;100954.25;;;18.23;33.78
60214;BME280;46080;46.904;19.688;2022-07-18T01:11:07;100951.31;;;18.11;34.61
60214;BME280;46080;46.904;19.688;2022-07-18T01:13:32;100955.84;;;18.10;34.69
60214;BME280;46080;46.904;19.688;2022-07-18T01:15:59;100955.00;;;18.03;34.49
60214;BME280;46080;46.904;19.688;2022-07-18T01:18:25;100960.13;;;17.98;34.29
60214;BME280;46080;46.904;19.688;2022-07-18T01:20:51;100955.34;;;17.94;34.41
60214;BME280;46080;46.904;19.688;2022-07-18T01:23:17;100956.50;;;17.84;34.80
60214;BME280;46080;46.904;19.688;2022-07-18T01:25:43;100958.34;;;17.77;35.08
60214;BME280;46080;46.904;19.688;2022-07-18T01:28:09;100948.13;;;17.72;35.21
60214;BME280;46080;46.904;19.688;2022-07-18T01:30:34;100960.94;;;17.64;35.50
60214;BME280;46080;46.904;19.688;2022-07-18T01:33:02;100959.25;;;17.63;35.57
60214;BME280;46080;46.904;19.688;2022-07-18T01:35:29;100957.81;;;17.60;35.26
60214;BME280;46080;46.904;19.688;2022-07-18T01:37:57;100955.31;;;17.59;35.44
60214;BME280;46080;46.904;19.688;2022-07-18T01:40:24;100958.72;;;17.46;36.38
60214;BME280;46080;46.904;19.688;2022-07-18T01:42:50;100954.75;;;17.42;36.35
60214;BME280;46080;46.904;19.688;2022-07-18T01:45:17;100958.63;;;17.32;36.09
60214;BME280;46080;46.904;19.688;2022-07-18T01:47:43;100954.59;;;17.22;36.98
60214;BME280;46080;46.904;19.688;2022-07-18T01:50:10;100951.56;;;17.10;37.19
60214;BME280;46080;46.904;19.688;2022-07-18T01:52:36;100950.88;;;17.01;37.47
60214;BME280;46080;46.904;19.688;2022-07-18T01:55:04;100962.13;;;16.90;38.06
60214;BME280;46080;46.904;19.688;2022-07-18T01:57:31;100966.59;;;16.82;38.21
60214;BME280;46080;46.904;19.688;2022-07-18T01:59:57;100963.38;;;16.72;38.09
60214;BME280;46080;46.904;19.688;2022-07-18T02:02:23;100964.13;;;16.66;38.34
60214;BME280;46080;46.904;19.688;2022-07-18T02:04:48;100965.06;;;16.58;38.75
60214;BME280;46080;46.904;19.688;2022-07-18T02:07:27;100962.69;;;16.48;39.01
60214;BME280;46080;46.904;19.688;2022-07-18T02:09:55;100960.38;;;16.45;38.64
60214;BME280;46080;46.904;19.688;2022-07-18T02:12:21;100962.72;;;16.34;39.93
60214;BME280;46080;46.904;19.688;2022-07-18T02:14:46;100964.66;;;16.25;39.68
60214;BME280;46080;46.904;19.688;2022-07-18T02:17:12;100969.03;;;16.26;40.21
60214;BME280;46080;46.904;19.688;2022-07-18T02:19:38;100974.03;;;16.14;40.82
60214;BME280;46080;46.904;19.688;2022-07-18T02:22:04;100978.13;;;16.10;40.86
60214;BME280;46080;46.904;19.688;2022-07-18T02:24:29;100978.38;;;16.00;41.61
60214;BME280;46080;46.904;19.688;2022-07-18T02:26:55;100980.88;;;16.02;41.41
60214;BME280;46080;46.904;19.688;2022-07-18T02:29:21;100986.34;;;16.23;41.16
60214;BME280;46080;46.904;19.688;2022-07-18T02:31:47;100986.84;;;16.27;40.69
60214;BME280;46080;46.904;19.688;2022-07-18T02:34:13;100987.41;;;16.22;40.78
60214;BME280;46080;46.904;19.688;2022-07-18T02:36:40;100985.63;;;16.15;41.67
60214;BME280;46080;46.904;19.688;2022-07-18T02:39:07;100987.38;;;16.37;40.63
60214;BME280;46080;46.904;19.688;2022-07-18T02:41:33;100989.78;;;16.47;40.72
60214;BME280;46080;46.904;19.688;2022-07-18T02:44:00;100990.34;;;16.42;40.89
60214;BME280;46080;46.904;19.688;2022-07-18T02:46:26;100987.84;;;16.41;41.86
60214;BME280;46080;46.904;19.688;2022-07-18T02:48:51;100997.31;;;16.37;41.30
60214;BME280;46080;46.904;19.688;2022-07-18T02:51:17;100992.94;;;16.51;40.86
60214;BME280;46080;46.904;19.688;2022-07-18T02:53:43;100995.88;;;16.56;40.95
60214;BME280;46080;46.904;19.688;2022-07-18T02:56:08;101002.75;;;16.73;40.25
60214;BME280;46080;46.904;19.688;2022-07-18T02:58:34;100998.19;;;16.89;40.16
60214;BME280;46080;46.904;19.688;2022-07-18T03:01:00;100997.59;;;17.15;39.88
60214;BME280;46080;46.904;19.688;2022-07-18T03:03:26;100991.00;;;17.17;39.99
60214;BME280;46080;46.904;19.688;2022-07-18T03:05:52;100989.47;;;17.08;39.96
60214;BME280;46080;46.904;19.688;2022-07-18T03:08:18;100993.13;;;17.00;40.10
60214;BME280;46080;46.904;19.688;2022-07-18T03:10:43;100987.34;;;17.03;39.90
60214;BME280;46080;46.904;19.688;2022-07-18T03:13:09;100990.31;;;17.09;39.89
60214;BME280;46080;46.904;19.688;2022-07-18T03:15:36;100996.34;;;17.11;39.96
60214;BME280;46080;46.904;19.688;2022-07-18T03:18:02;100996.84;;;17.21;39.82
60214;BME280;46080;46.904;19.688;2022-07-18T03:20:28;101003.72;;;17.24;39.75
60214;BME280;46080;46.904;19.688;2022-07-18T03:22:54;101005.78;;;17.71;39.04
60214;BME280;46080;46.904;19.688;2022-07-18T03:25:20;100996.91;;;18.34;38.14
60214;BME280;46080;46.904;19.688;2022-07-18T03:27:45;101003.19;;;18.96;37.30
60214;BME280;46080;46.904;19.688;2022-07-18T03:30:11;101003.47;;;19.55;37.00
60214;BME280;46080;46.904;19.688;2022-07-18T03:32:37;101012.78;;;20.06;35.86
60214;BME280;46080;46.904;19.688;2022-07-18T03:35:03;101008.91;;;20.54;35.68
60214;BME280;46080;46.904;19.688;2022-07-18T03:37:29;101015.31;;;21.11;34.69
60214;BME280;46080;46.904;19.688;2022-07-18T03:39:55;101012.13;;;21.78;33.99
60214;BME280;46080;46.904;19.688;2022-07-18T03:42:20;101013.88;;;22.35;33.29
60214;BME280;46080;46.904;19.688;2022-07-18T03:44:46;101012.66;;;22.98;32.35
60214;BME280;46080;46.904;19.688;2022-07-18T03:47:12;101018.56;;;23.37;32.06
60214;BME280;46080;46.904;19.688;2022-07-18T03:49:38;101020.31;;;23.86;30.96
60214;BME280;46080;46.904;19.688;2022-07-18T03:52:04;101016.59;;;24.39;29.70
60214;BME280;46080;46.904;19.688;2022-07-18T03:54:29;101024.78;;;24.80;29.02
60214;BME280;46080;46.904;19.688;2022-07-18T03:56:55;101026.47;;;25.27;28.33
60214;BME280;46080;46.904;19.688;2022-07-18T03:59:21;101023.53;;;25.62;27.73
60214;BME280;46080;46.904;19.688;2022-07-18T04:01:46;101030.06;;;26.12;27.25
60214;BME280;46080;46.904;19.688;2022-07-18T04:04:12;101023.16;;;26.26;26.79
60214;BME280;46080;46.904;19.688;2022-07-18T04:06:38;101021.47;;;26.47;26.49
60214;BME280;46080;46.904;19.688;2022-07-18T04:09:04;101027.03;;;26.75;25.97
60214;BME280;46080;46.904;19.688;2022-07-18T04:11:30;101028.34;;;26.94;25.63
60214;BME280;46080;46.904;19.688;2022-07-18T04:13:56;101031.56;;;27.41;25.37
60214;BME280;46080;46.904;19.688;2022-07-18T04:16:23;101032.88;;;27.33;24.69
60214;BME280;46080;46.904;19.688;2022-07-18T04:18:50;101029.75;;;27.57;24.30
60214;BME280;46080;46.904;19.688;2022-07-18T04:21:16;101030.56;;;27.25;24.85
60214;BME280;46080;46.904;19.688;2022-07-18T04:23:42;101025.50;;;26.84;25.16
60214;BME280;46080;46.904;19.688;2022-07-18T04:26:08;101029.38;;;26.22;25.90
60214;BME280;46080;46.904;19.688;2022-07-18T04:28:34;101038.34;;;25.83;26.22
60214;BME280;46080;46.904;19.688;2022-07-18T04:31:00;101031.56;;;26.03;25.99
60214;BME280;46080;46.904;19.688;2022-07-18T04:33:26;101028.50;;;25.48;26.78
60214;BME280;46080;46.904;19.688;2022-07-18T04:35:52;101037.34;;;25.38;26.40
60214;BME280;46080;46.904;19.688;2022-07-18T04:38:18;101027.00;;;25.40;26.47
60214;BME280;46080;46.904;19.688;2022-07-18T04:40:44;101032.31;;;25.30;27.25
60214;BME280;46080;46.904;19.688;2022-07-18T04:43:09;101026.09;;;25.35;26.77
60214;BME280;46080;46.904;19.688;2022-07-18T04:45:36;101023.38;;;25.69;26.67
60214;BME280;46080;46.904;19.688;2022-07-18T04:48:04;101026.69;;;25.37;26.86
60214;BME280;46080;46.904;19.688;2022-07-18T04:50:30;101026.44;;;25.55;26.53
60214;BME280;46080;46.904;19.688;2022-07-18T04:52:57;101029.41;;;25.08;27.30
60214;BME280;46080;46.904;19.688;2022-07-18T04:55:23;101027.19;;;25.68;26.56
60214;BME280;46080;46.904;19.688;2022-07-18T04:57:51;101020.00;;;26.18;25.94
60214;BME280;46080;46.904;19.688;2022-07-18T05:00:22;101021.81;;;26.29;26.21
60214;BME280;46080;46.904;19.688;2022-07-18T05:02:50;101018.94;;;26.63;25.81
60214;BME280;46080;46.904;19.688;2022-07-18T05:05:17;101023.72;;;26.51;25.76
60214;BME280;46080;46.904;19.688;2022-07-18T05:07:44;101019.91;;;26.74;25.79
60214;BME280;46080;46.904;19.688;2022-07-18T05:10:12;101024.00;;;26.71;25.61
60214;BME280;46080;46.904;19.688;2022-07-18T05:12:41;101016.66;;;26.77;25.38
60214;BME280;46080;46.904;19.688;2022-07-18T05:15:09;101020.22;;;27.05;25.28
60214;BME280;46080;46.904;19.688;2022-07-18T05:17:36;101014.19;;;27.30;25.06
60214;BME280;46080;46.904;19.688;2022-07-18T05:20:04;101016.44;;;27.70;24.79
60214;BME280;46080;46.904;19.688;2022-07-18T05:22:30;101026.75;;;27.58;24.28
60214;BME280;46080;46.904;19.688;2022-07-18T05:24:57;101022.44;;;28.00;24.63
60214;BME280;46080;46.904;19.688;2022-07-18T05:27:22;101016.25;;;28.25;24.50
60214;BME280;46080;46.904;19.688;2022-07-18T05:29:48;101011.28;;;28.22;24.53
60214;BME280;46080;46.904;19.688;2022-07-18T05:32:14;101012.22;;;28.43;23.97
60214;BME280;46080;46.904;19.688;2022-07-18T05:34:40;101018.09;;;28.09;23.96
60214;BME280;46080;46.904;19.688;2022-07-18T05:37:05;101010.13;;;28.07;23.94
60214;BME280;46080;46.904;19.688;2022-07-18T05:39:31;101007.13;;;28.09;24.36
60214;BME280;46080;46.904;19.688;2022-07-18T05:41:57;101009.41;;;27.85;24.04
60214;BME280;46080;46.904;19.688;2022-07-18T05:44:22;101007.84;;;28.47;24.04
60214;BME280;46080;46.904;19.688;2022-07-18T05:46:48;101012.84;;;28.60;23.68
60214;BME280;46080;46.904;19.688;2022-07-18T05:49:15;101007.88;;;28.52;23.74
60214;BME280;46080;46.904;19.688;2022-07-18T05:51:41;101010.78;;;28.30;23.96
60214;BME280;46080;46.904;19.688;2022-07-18T05:54:06;101012.50;;;28.47;23.68
60214;BME280;46080;46.904;19.688;2022-07-18T05:56:32;101013.56;;;28.40;23.57
60214;BME280;46080;46.904;19.688;2022-07-18T05:58:58;101009.84;;;28.62;23.90
60214;BME280;46080;46.904;19.688;2022-07-18T06:01:24;101017.63;;;29.17;22.96
60214;BME280;46080;46.904;19.688;2022-07-18T06:03:49;101022.81;;;28.97;23.29
60214;BME280;46080;46.904;19.688;2022-07-18T06:06:16;101018.75;;;29.26;22.93
60214;BME280;46080;46.904;19.688;2022-07-18T06:08:44;101013.72;;;28.76;23.28
60214;BME280;46080;46.904;19.688;2022-07-18T06:11:10;101022.91;;;29.28;22.87
60214;BME280;46080;46.904;19.688;2022-07-18T06:13:37;101008.31;;;29.79;22.74
60214;BME280;46080;46.904;19.688;2022-07-18T06:16:04;101014.63;;;29.54;22.35
60214;BME280;46080;46.904;19.688;2022-07-18T06:18:31;101018.75;;;29.26;22.92
60214;BME280;46080;46.904;19.688;2022-07-18T06:20:56;101012.72;;;29.34;22.45
60214;BME280;46080;46.904;19.688;2022-07-18T06:23:22;101018.72;;;29.05;22.58
60214;BME280;46080;46.904;19.688;2022-07-18T06:25:48;101004.28;;;28.47;22.94
60214;BME280;46080;46.904;19.688;2022-07-18T06:28:14;101008.94;;;28.51;22.80
60214;BME280;46080;46.904;19.688;2022-07-18T06:30:40;101010.84;;;28.40;22.88
60214;BME280;46080;46.904;19.688;2022-07-18T06:33:05;101005.16;;;28.63;22.83
60214;BME280;46080;46.904;19.688;2022-07-18T06:35:33;101008.59;;;29.57;22.46
60214;BME280;46080;46.904;19.688;2022-07-18T06:37:59;101013.81;;;29.84;21.49
60214;BME280;46080;46.904;19.688;2022-07-18T06:40:25;101008.88;;;29.35;22.21
60214;BME280;46080;46.904;19.688;2022-07-18T06:42:52;101005.56;;;29.69;21.84
60214;BME280;46080;46.904;19.688;2022-07-18T06:45:19;101009.66;;;29.92;21.53
60214;BME280;46080;46.904;19.688;2022-07-18T06:47:45;101007.19;;;29.96;21.54
60214;BME280;46080;46.904;19.688;2022-07-18T06:50:12;100997.34;;;30.55;20.85
60214;BME280;46080;46.904;19.688;2022-07-18T06:52:39;100998.56;;;30.83;20.13
60214;BME280;46080;46.904;19.688;2022-07-18T06:55:06;101008.31;;;29.59;21.00
60214;BME280;46080;46.904;19.688;2022-07-18T06:57:32;101009.97;;;29.49;20.96
60214;BME280;46080;46.904;19.688;2022-07-18T06:59:58;100999.50;;;29.88;20.96
60214;BME280;46080;46.904;19.688;2022-07-18T07:02:24;101004.44;;;29.91;20.69
60214;BME280;46080;46.904;19.688;2022-07-18T07:04:50;101007.03;;;30.42;20.76
60214;BME280;46080;46.904;19.688;2022-07-18T07:07:16;101002.81;;;29.95;20.24
60214;BME280;46080;46.904;19.688;2022-07-18T07:09:41;100996.03;;;30.97;20.65
60214;BME280;46080;46.904;19.688;2022-07-18T07:12:07;100996.97;;;31.51;20.04
60214;BME280;46080;46.904;19.688;2022-07-18T07:14:36;100996.78;;;31.72;19.73
60214;BME280;46080;46.904;19.688;2022-07-18T07:17:03;100992.34;;;32.00;19.54
60214;BME280;46080;46.904;19.688;2022-07-18T07:19:29;100990.56;;;31.85;19.16
60214;BME280;46080;46.904;19.688;2022-07-18T07:21:55;100991.97;;;32.07;19.12
60214;BME280;46080;46.904;19.688;2022-07-18T07:24:20;100991.72;;;32.51;18.67
60214;BME280;46080;46.904;19.688;2022-07-18T07:26:46;100987.00;;;32.76;18.54
60214;BME280;46080;46.904;19.688;2022-07-18T07:29:12;100994.06;;;32.63;18.17
60214;BME280;46080;46.904;19.688;2022-07-18T07:31:38;100990.41;;;32.87;18.27
60214;BME280;46080;46.904;19.688;2022-07-18T07:34:04;100996.47;;;32.70;17.76
60214;BME280;46080;46.904;19.688;2022-07-18T07:36:30;100996.19;;;32.91;17.86
60214;BME280;46080;46.904;19.688;2022-07-18T07:38:55;100990.47;;;33.01;17.71
60214;BME280;46080;46.904;19.688;2022-07-18T07:41:22;100990.53;;;33.48;18.41
60214;BME280;46080;46.904;19.688;2022-07-18T07:43:48;100995.09;;;33.57;17.76
60214;BME280;46080;46.904;19.688;2022-07-18T07:46:14;100988.09;;;32.94;17.13
60214;BME280;46080;46.904;19.688;2022-07-18T07:48:39;100994.69;;;33.12;17.25
60214;BME280;46080;46.904;19.688;2022-07-18T07:51:05;100988.16;;;33.27;16.95
60214;BME280;46080;46.904;19.688;2022-07-18T07:53:31;100990.84;;;33.79;17.63
60214;BME280;46080;46.904;19.688;2022-07-18T07:55:58;100988.28;;;34.10;17.68
60214;BME280;46080;46.904;19.688;2022-07-18T07:58:23;100993.81;;;33.83;16.69
60214;BME280;46080;46.904;19.688;2022-07-18T08:00:49;100995.66;;;34.43;16.47
60214;BME280;46080;46.904;19.688;2022-07-18T08:03:15;100990.00;;;34.48;16.56
60214;BME280;46080;46.904;19.688;2022-07-18T08:05:48;100993.41;;;34.31;16.25
60214;BME280;46080;46.904;19.688;2022-07-18T08:08:15;100991.34;;;34.23;16.50
60214;BME280;46080;46.904;19.688;2022-07-18T08:10:41;100996.25;;;34.54;16.20
60214;BME280;46080;46.904;19.688;2022-07-18T08:13:08;100989.22;;;34.70;15.93
60214;BME280;46080;46.904;19.688;2022-07-18T08:15:34;100990.63;;;34.17;16.39
60214;BME280;46080;46.904;19.688;2022-07-18T08:18:01;100981.66;;;34.62;16.59
60214;BME280;46080;46.904;19.688;2022-07-18T08:20:26;100983.88;;;34.74;16.08
60214;BME280;46080;46.904;19.688;2022-07-18T08:25:29;100984.41;;;34.76;16.39
60214;BME280;46080;46.904;19.688;2022-07-18T08:27:56;100982.06;;;34.69;15.92
60214;BME280;46080;46.904;19.688;2022-07-18T08:30:22;100993.88;;;34.47;15.67
60214;BME280;46080;46.904;19.688;2022-07-18T08:32:48;100984.78;;;34.19;16.14
60214;BME280;46080;46.904;19.688;2022-07-18T08:35:14;100980.44;;;33.71;15.68
60214;BME280;46080;46.904;19.688;2022-07-18T08:37:40;100983.66;;;34.20;16.05
60214;BME280;46080;46.904;19.688;2022-07-18T08:40:07;100981.09;;;34.37;15.76
60214;BME280;46080;46.904;19.688;2022-07-18T08:42:34;100984.38;;;34.39;15.74
60214;BME280;46080;46.904;19.688;2022-07-18T08:45:00;100968.28;;;34.41;15.55
60214;BME280;46080;46.904;19.688;2022-07-18T08:47:28;100977.94;;;34.02;16.24
60214;BME280;46080;46.904;19.688;2022-07-18T08:49:54;100974.94;;;33.99;16.33
60214;BME280;46080;46.904;19.688;2022-07-18T08:52:21;100972.78;;;34.37;16.07
60214;BME280;46080;46.904;19.688;2022-07-18T08:54:48;100975.84;;;33.66;16.10
60214;BME280;46080;46.904;19.688;2022-07-18T08:57:17;100975.09;;;33.47;16.22
60214;BME280;46080;46.904;19.688;2022-07-18T08:59:43;100969.03;;;33.91;15.98
60214;BME280;46080;46.904;19.688;2022-07-18T09:02:10;100964.94;;;34.03;16.01
60214;BME280;46080;46.904;19.688;2022-07-18T09:04:39;100974.16;;;33.84;15.85
60214;BME280;46080;46.904;19.688;2022-07-18T09:07:07;100975.28;;;32.84;16.41
60214;BME280;46080;46.904;19.688;2022-07-18T09:09:35;100965.91;;;32.42;16.48
60214;BME280;46080;46.904;19.688;2022-07-18T09:12:07;100958.97;;;32.45;16.95
60214;BME280;46080;46.904;19.688;2022-07-18T09:14:41;100962.81;;;32.68;16.84
60214;BME280;46080;46.904;19.688;2022-07-18T09:17:21;100955.84;;;32.32;16.91
60214;BME280;46080;46.904;19.688;2022-07-18T09:22:30;100958.38;;;32.05;17.02
60214;BME280;46080;46.904;19.688;2022-07-18T09:27:28;100958.97;;;32.45;17.12
60214;BME280;46080;46.904;19.688;2022-07-18T09:32:34;100951.56;;;32.64;16.57
60214;BME280;46080;46.904;19.688;2022-07-18T09:35:06;100953.97;;;32.47;16.52
60214;BME280;46080;46.904;19.688;2022-07-18T09:37:32;100955.25;;;32.55;16.12
60214;BME280;46080;46.904;19.688;2022-07-18T09:40:16;100946.97;;;32.55;16.18
60214;BME280;46080;46.904;19.688;2022-07-18T09:42:42;100954.59;;;32.63;16.34
60214;BME280;46080;46.904;19.688;2022-07-18T09:45:08;100951.59;;;32.40;16.54
60214;BME280;46080;46.904;19.688;2022-07-18T09:47:55;100946.22;;;32.06;16.49
60214;BME280;46080;46.904;19.688;2022-07-18T09:51:14;100943.06;;;31.93;16.44
60214;BME280;46080;46.904;19.688;2022-07-18T09:53:23;100937.41;;;32.04;16.26
60214;BME280;46080;46.904;19.688;2022-07-18T09:55:52;100943.06;;;31.93;16.58
60214;BME280;46080;46.904;19.688;2022-07-18T09:58:23;100940.19;;;31.79;16.89
60214;BME280;46080;46.904;19.688;2022-07-18T10:00:51;100939.19;;;31.70;16.33
60214;BME280;46080;46.904;19.688;2022-07-18T10:03:17;100943.78;;;31.51;16.92
60214;BME280;46080;46.904;19.688;2022-07-18T10:05:45;100931.91;;;31.26;16.93
60214;BME280;46080;46.904;19.688;2022-07-18T10:08:17;100935.09;;;31.38;16.96
60214;BME280;46080;46.904;19.688;2022-07-18T10:10:44;100926.81;;;31.38;16.10
60214;BME280;46080;46.904;19.688;2022-07-18T10:13:11;100932.25;;;31.19;17.00
60214;BME280;46080;46.904;19.688;2022-07-18T10:15:41;100932.13;;;30.95;16.80
60214;BME280;46080;46.904;19.688;2022-07-18T10:18:09;100932.66;;;31.02;16.86
60214;BME280;46080;46.904;19.688;2022-07-18T10:20:37;100928.03;;;31.27;17.24
60214;BME280;46080;46.904;19.688;2022-07-18T10:23:28;100931.66;;;31.22;16.67
60214;BME280;46080;46.904;19.688;2022-07-18T10:31:27;100918.81;;;31.42;16.13
60214;BME280;46080;46.904;19.688;2022-07-18T10:33:54;100917.41;;;31.15;15.95
60214;BME280;46080;46.904;19.688;2022-07-18T10:36:23;100920.34;;;30.89;16.19
60214;BME280;46080;46.904;19.688;2022-07-18T10:39:08;100914.69;;;30.70;16.47
60214;BME280;46080;46.904;19.688;2022-07-18T11:03:04;100892.66;;;31.10;16.10
60214;BME280;46080;46.904;19.688;2022-07-18T11:16:01;100876.13;;;31.39;16.73
60214;BME280;46080;46.904;19.688;2022-07-18T11:21:34;100860.28;;;31.26;16.34
60214;BME280;46080;46.904;19.688;2022-07-18T11:24:05;100861.06;;;31.02;16.00
60214;BME280;46080;46.904;19.688;2022-07-18T11:26:37;100858.84;;;31.04;16.24
60214;BME280;46080;46.904;19.688;2022-07-18T11:29:05;100850.59;;;31.04;16.52
60214;BME280;46080;46.904;19.688;2022-07-18T11:31:45;100853.44;;;30.89;15.89
60214;BME280;46080;46.904;19.688;2022-07-18T11:34:12;100849.59;;;30.90;16.16
60214;BME280;46080;46.904;19.688;2022-07-18T11:36:39;100851.28;;;30.86;16.11
60214;BME280;46080;46.904;19.688;2022-07-18T11:39:06;100839.16;;;30.87;16.25
60214;BME280;46080;46.904;19.688;2022-07-18T11:41:32;100843.50;;;30.93;16.38
60214;BME280;46080;46.904;19.688;2022-07-18T11:43:58;100841.56;;;30.99;16.34
60214;BME280;46080;46.904;19.688;2022-07-18T11:46:26;100840.94;;;31.07;15.99
60214;BME280;46080;46.904;19.688;2022-07-18T11:49:02;100837.31;;;31.12;15.67
60214;BME280;46080;46.904;19.688;2022-07-18T11:51:36;100833.53;;;31.02;16.37
60214;BME280;46080;46.904;19.688;2022-07-18T11:54:03;100828.91;;;30.98;16.53
60214;BME280;46080;46.904;19.688;2022-07-18T11:56:29;100834.72;;;30.91;15.89
60214;BME280;46080;46.904;19.688;2022-07-18T11:58:55;100838.00;;;30.93;16.01
60214;BME280;46080;46.904;19.688;2022-07-18T12:01:22;100830.38;;;30.85;15.06
60214;BME280;46080;46.904;19.688;2022-07-18T12:03:49;100833.16;;;30.80;15.52
60214;BME280;46080;46.904;19.688;2022-07-18T12:06:18;100821.34;;;30.79;15.21
60214;BME280;46080;46.904;19.688;2022-07-18T12:08:49;100821.03;;;30.81;15.50
60214;BME280;46080;46.904;19.688;2022-07-18T12:11:34;100825.69;;;30.85;15.78
60214;BME280;46080;46.904;19.688;2022-07-18T12:14:02;100820.41;;;30.89;16.03
60214;BME280;46080;46.904;19.688;2022-07-18T12:16:38;100822.41;;;30.83;16.27
60214;BME280;46080;46.904;19.688;2022-07-18T12:24:19;100813.22;;;30.64;15.83
60214;BME280;46080;46.904;19.688;2022-07-18T12:26:45;100806.16;;;30.52;15.75
60214;BME280;46080;46.904;19.688;2022-07-18T12:29:11;100806.63;;;30.65;15.95
60214;BME280;46080;46.904;19.688;2022-07-18T12:31:42;100801.28;;;30.73;15.54
60214;BME280;46080;46.904;19.688;2022-07-18T12:34:13;100797.16;;;30.76;16.28
60214;BME280;46080;46.904;19.688;2022-07-18T12:36:56;100798.50;;;30.79;16.07
60214;BME280;46080;46.904;19.688;2022-07-18T12:39:30;100792.06;;;30.59;16.17
60214;BME280;46080;46.904;19.688;2022-07-18T12:41:57;100791.19;;;30.64;16.47
60214;BME280;46080;46.904;19.688;2022-07-18T12:44:25;100798.38;;;30.60;16.25
60214;BME280;46080;46.904;19.688;2022-07-18T12:46:50;100787.63;;;30.63;16.03
60214;BME280;46080;46.904;19.688;2022-07-18T12:49:16;100793.38;;;30.67;16.21
60214;BME280;46080;46.904;19.688;2022-07-18T12:51:42;100792.84;;;30.65;16.62
60214;BME280;46080;46.904;19.688;2022-07-18T12:54:08;100785.91;;;30.72;16.13
60214;BME280;46080;46.904;19.688;2022-07-18T12:56:34;100784.31;;;30.66;16.14
60214;BME280;46080;46.904;19.688;2022-07-18T12:59:00;100790.22;;;30.49;15.98
60214;BME280;46080;46.904;19.688;2022-07-18T13:01:26;100781.50;;;30.37;16.16
60214;BME280;46080;46.904;19.688;2022-07-18T13:03:52;100768.31;;;30.34;16.13
60214;BME280;46080;46.904;19.688;2022-07-18T13:06:18;100770.41;;;30.52;16.29
60214;BME280;46080;46.904;19.688;2022-07-18T13:08:43;100766.16;;;30.65;16.39
60214;BME280;46080;46.904;19.688;2022-07-18T13:11:09;100759.78;;;30.70;16.62
60214;BME280;46080;46.904;19.688;2022-07-18T13:13:35;100768.38;;;30.63;16.58
60214;BME280;46080;46.904;19.688;2022-07-18T13:16:01;100757.69;;;30.56;16.27
60214;BME280;46080;46.904;19.688;2022-07-18T13:18:27;100763.59;;;30.74;16.79
60214;BME280;46080;46.904;19.688;2022-07-18T13:20:52;100753.63;;;30.78;16.38
60214;BME280;46080;46.904;19.688;2022-07-18T13:23:18;100757.75;;;30.81;16.40
60214;BME280;46080;46.904;19.688;2022-07-18T13:25:44;100756.09;;;30.80;16.11
60214;BME280;46080;46.904;19.688;2022-07-18T13:28:10;100752.66;;;30.93;16.49
60214;BME280;46080;46.904;19.688;2022-07-18T13:30:36;100758.53;;;30.86;16.50
60214;BME280;46080;46.904;19.688;2022-07-18T13:33:03;100757.09;;;30.89;16.53
60214;BME280;46080;46.904;19.688;2022-07-18T13:35:29;100751.00;;;30.92;16.44